Amalia, New Mexico
Current Conditions -  °F | °C
As of 7:15 AM on Friday 19 Dec 2014 (Local Time) from KSKX Reporting Station
Overcast Overcast  
Wind Chill: 18°   Ceiling: 400
Heat Index: 18°   Visibility: 10mi
Dew Point: 16°   Wind: 3mph
Humidity: 93%   Direction: 350°N
Pressure: 30.18"   Gusts: NA
Location:  36.94°N, 105.45°W
Report Text: KSKX 191415Z AUTO 35003KT 10SM OVC004 M08/M09 A3018 RMK AO1
Loading
Personal Weather Stations






























Interactive Weather Map New forecast layout! Learn more

10-Day Weather Forecast

Advertisements
Track Severe Weather on mobile